Overview Statistics Trail Chart Weather Telemetry Raw packets
 

This is the latest recevied weather packets stored in our database for station/object SP9WJ-3. If no packets are shown the sender has not sent any weather packets the latest 10 day(s).

<< 1 2 3 4 >>
Time Temp. Humidity Pressure Rain* Wind** Luminosity Snow
1788227472 20.56° C 64% 982.1 hPa - - - -
1788224717 21.11° C 66% 982.2 hPa - - - -
1788222879 20.56° C 66% 982.3 hPa - - - -
1788221961 20.56° C 65% 982.4 hPa - - - -
1788221042 21.11° C 65% 982.4 hPa - - - -
1788220124 21.11° C 65% 982.4 hPa - - - -
1788219311 21.11° C 65% 982.5 hPa - - - -
1788219241 21.11° C 65% 982.5 hPa - - - -
1788219205 21.11° C 65% 982.5 hPa - - - -
1788218286 21.11° C 65% 982.6 hPa - - - -
1788217368 21.11° C 63% 982.6 hPa - - - -
1788216449 21.11° C 63% 982.6 hPa - - - -
1788215530 21.67° C 63% 982.7 hPa - - - -
1788213693 21.67° C 63% 982.6 hPa - - - -
1788212774 21.67° C 64% 982.5 hPa - - - -
1788210096 21.67° C 63% 982.3 hPa - - - -
1788210017 21.67° C 63% 982.3 hPa - - - -
1788209166 21.67° C 62% 982.2 hPa - - - -
1788209099 21.67° C 62% 982.2 hPa - - - -
1788207261 22.22° C 59% 981.9 hPa - - - -
1788206375 22.22° C 58% 981.8 hPa - - - -
1788206342 22.22° C 58% 981.8 hPa - - - -
1788205622 22.78° C 57% 981.7 hPa - - - -
1788205423 22.78° C 57% 981.7 hPa - - - -
1788204504 22.78° C 57% 981.7 hPa - - - -

* Rain since midnight (hover to see other rain measurements)
** Current wind speed in m/s (hover to see current wind gust speed)